Time;durP1;ratioP1;P1;durP2;ratioP2;P2;SDS_P1;SDS_P2;PMS_P1;PMS_P2;Temp;Humidity;BMP_temperature;BMP_pressure;BME280_temperature;BME280_humidity;BME280_pressure;Samples;Min_cycle;Max_cycle;Signal;HPM_P1;HPM_P2
2021/04/01 00:00:22;;;;;;;15.18;4.85;;;11.60;61.20;;;;;;4991895;28;20034;-78
2021/04/01 00:02:52;;;;;;;22.98;5.47;;;11.60;61.10;;;;;;4995423;28;20044;-79
2021/04/01 00:05:18;;;;;;;11.70;4.60;;;11.60;61.00;;;;;;4991575;28;20041;-78
2021/04/01 00:07:44;;;;;;;14.95;4.50;;;11.50;61.10;;;;;;4992795;28;20034;-78
2021/04/01 00:10:14;;;;;;;15.05;4.75;;;11.50;61.30;;;;;;4995418;28;20077;-79
2021/04/01 00:12:40;;;;;;;11.32;4.43;;;11.50;61.50;;;;;;4993843;28;20037;-79
2021/04/01 00:15:08;;;;;;;13.07;4.57;;;11.40;61.60;;;;;;5004051;28;20408;-78
2021/04/01 00:17:35;;;;;;;17.10;4.93;;;11.40;61.80;;;;;;4993167;28;20065;-78
2021/04/01 00:20:01;;;;;;;13.73;5.30;;;11.40;61.90;;;;;;4991566;28;20030;-78
2021/04/01 00:22:26;;;;;;;11.95;4.40;;;11.40;62.10;;;;;;5007775;28;20042;-79
2021/04/01 00:24:52;;;;;;;14.07;4.18;;;11.40;62.30;;;;;;4994828;28;20031;-80
2021/04/01 00:27:18;;;;;;;18.00;4.88;;;11.40;61.90;;;;;;4991194;28;20034;-80
2021/04/01 00:29:43;;;;;;;15.55;5.43;;;11.40;62.20;;;;;;4991443;28;20040;-80
2021/04/01 00:32:09;;;;;;;12.93;4.43;;;11.30;62.20;;;;;;5005126;28;20046;-79
2021/04/01 00:34:34;;;;;;;19.05;5.00;;;11.30;62.40;;;;;;4995625;28;20042;-79
2021/04/01 00:37:00;;;;;;;14.73;5.45;;;11.30;62.30;;;;;;4993986;28;20069;-79
2021/04/01 00:39:25;;;;;;;11.48;4.18;;;11.30;62.40;;;;;;4993674;28;20053;-79
2021/04/01 00:41:51;;;;;;;19.55;4.72;;;11.20;63.50;;;;;;4991260;28;20094;-79
2021/04/01 00:44:17;;;;;;;12.70;4.35;;;11.30;63.20;;;;;;4993574;28;20042;-79
2021/04/01 00:46:47;;;;;;;12.00;4.70;;;11.20;63.20;;;;;;5007475;28;20056;-77
2021/04/01 00:49:12;;;;;;;19.40;5.07;;;11.20;63.20;;;;;;4994074;28;20116;-77
2021/04/01 00:51:38;;;;;;;14.57;5.32;;;11.10;64.50;;;;;;4996043;28;20130;-77
2021/04/01 00:54:04;;;;;;;18.95;5.60;;;11.10;64.20;;;;;;5010336;28;20155;-80
2021/04/01 00:56:29;;;;;;;16.60;5.05;;;11.10;64.80;;;;;;4990844;28;20045;-77
2021/04/01 00:58:55;;;;;;;14.55;5.70;;;11.10;64.50;;;;;;4999615;28;20042;-77
2021/04/01 01:03:50;;;;;;;17.90;4.93;;;11.10;65.80;;;;;;4997519;28;20970;-80
2021/04/01 01:06:15;;;;;;;17.35;5.53;;;11.10;65.50;;;;;;4995322;28;20588;-79
2021/04/01 01:08:41;;;;;;;25.25;5.55;;;11.00;65.90;;;;;;4995717;28;20121;-80
2021/04/01 01:11:06;;;;;;;15.18;5.40;;;11.00;66.30;;;;;;4994147;28;20046;-79
2021/04/01 01:13:32;;;;;;;15.35;4.70;;;10.90;66.60;;;;;;4996564;28;20038;-80
2021/04/01 01:15:58;;;;;;;16.65;6.28;;;10.90;66.90;;;;;;4996024;28;20038;-79
2021/04/01 01:18:27;;;;;;;12.10;4.75;;;10.80;67.10;;;;;;4995053;28;20049;-79
2021/04/01 01:20:55;;;;;;;12.70;5.82;;;10.80;68.10;;;;;;5002004;28;20062;-79
2021/04/01 01:23:21;;;;;;;15.45;5.68;;;10.80;68.50;;;;;;4994027;28;20516;-80
2021/04/01 01:25:47;;;;;;;18.42;5.93;;;10.80;69.10;;;;;;4993393;28;20042;-80
2021/04/01 01:28:12;;;;;;;14.23;5.45;;;10.80;68.70;;;;;;4993918;28;20034;-80
2021/04/01 01:30:38;;;;;;;14.52;5.43;;;10.80;70.60;;;;;;4995208;28;20386;-80
2021/04/01 01:33:06;;;;;;;15.20;4.75;;;10.80;70.10;;;;;;4991645;28;20049;-78
2021/04/01 01:35:35;;;;;;;16.83;5.10;;;10.70;70.50;;;;;;4994373;28;20064;-78
2021/04/01 01:38:03;;;;;;;17.95;5.47;;;10.70;70.70;;;;;;4993418;28;20065;-78
2021/04/01 01:40:30;;;;;;;12.30;4.97;;;10.80;70.10;;;;;;4993169;28;20046;-78
2021/04/01 01:43:00;;;;;;;22.27;5.25;;;10.80;70.30;;;;;;4991752;28;20133;-78
2021/04/01 01:45:27;;;;;;;18.17;5.00;;;10.70;70.20;;;;;;4991162;28;20093;-78
2021/04/01 01:47:54;;;;;;;14.68;4.78;;;10.60;71.30;;;;;;4991701;28;20039;-78
2021/04/01 01:50:22;;;;;;;17.02;5.07;;;10.60;70.80;;;;;;4991659;28;20045;-77
2021/04/01 01:52:48;;;;;;;17.95;4.72;;;10.60;70.90;;;;;;4998078;28;20034;-77
2021/04/01 01:55:14;;;;;;;12.95;5.38;;;10.60;71.70;;;;;;4990257;28;20056;-78
2021/04/01 01:57:41;;;;;;;16.45;5.25;;;10.60;72.20;;;;;;4989508;28;20494;-78
2021/04/01 02:00:17;;;;;;;15.25;5.70;;;10.60;72.00;;;;;;4987625;28;20049;-78
2021/04/01 02:03:04;;;;;;;14.13;5.47;;;10.60;72.50;;;;;;4989020;28;20038;-78
2021/04/01 02:05:31;;;;;;;15.10;5.05;;;10.50;72.90;;;;;;4991064;28;20046;-78
2021/04/01 02:07:57;;;;;;;15.68;5.82;;;10.50;73.30;;;;;;4990522;28;20062;-79
2021/04/01 02:10:34;;;;;;;13.95;5.22;;;10.50;73.20;;;;;;4989655;28;20539;-78
2021/04/01 02:13:01;;;;;;;14.82;4.72;;;10.50;74.40;;;;;;4992832;28;20042;-78
2021/04/01 02:15:46;;;;;;;25.10;5.50;;;10.50;74.40;;;;;;4991385;28;20045;-79
2021/04/01 02:18:17;;;;;;;21.27;5.43;;;10.40;76.60;;;;;;4996709;28;20093;-78
2021/04/01 02:20:46;;;;;;;18.00;6.13;;;10.40;76.50;;;;;;4991500;28;20509;-78
2021/04/01 02:23:13;;;;;;;17.42;5.32;;;10.30;76.80;;;;;;4990743;28;20619;-78
2021/04/01 02:25:40;;;;;;;12.88;4.93;;;10.30;76.80;;;;;;5005747;28;20046;-78
2021/04/01 02:28:06;;;;;;;15.63;4.95;;;10.20;77.60;;;;;;4990504;28;20525;-78
2021/04/01 02:30:32;;;;;;;11.57;4.47;;;10.30;78.90;;;;;;4992164;28;20038;-78
2021/04/01 02:32:58;;;;;;;16.10;5.72;;;10.30;78.70;;;;;;4997624;28;20045;-78
2021/04/01 02:35:24;;;;;;;14.00;5.72;;;10.30;78.70;;;;;;4990243;28;20034;-78
2021/04/01 02:37:49;;;;;;;16.98;5.82;;;10.20;78.90;;;;;;4997180;28;20591;-78
2021/04/01 02:40:15;;;;;;;30.08;6.07;;;10.30;79.30;;;;;;4991007;28;20113;-78
2021/04/01 02:42:42;;;;;;;14.70;5.20;;;10.20;79.90;;;;;;4997022;28;20038;-78
2021/04/01 02:45:09;;;;;;;15.82;4.88;;;10.20;80.40;;;;;;4988434;28;20034;-78
2021/04/01 02:47:35;;;;;;;18.73;5.07;;;10.20;80.30;;;;;;4989784;28;20065;-78
2021/04/01 02:50:01;;;;;;;15.45;5.65;;;10.10;81.00;;;;;;4990042;28;20039;-77
2021/04/01 02:52:27;;;;;;;18.73;5.85;;;10.10;80.90;;;;;;4988746;28;20058;-78
2021/04/01 02:54:52;;;;;;;10.77;4.88;;;10.10;80.80;;;;;;4990619;28;20038;-77
2021/04/01 02:57:19;;;;;;;9.48;4.85;;;10.10;80.80;;;;;;4988718;28;20042;-77
2021/04/01 02:59:48;;;;;;;16.65;5.07;;;10.10;81.00;;;;;;4990045;28;20105;-80
2021/04/01 03:02:14;;;;;;;20.30;5.28;;;10.10;81.30;;;;;;4999684;28;20030;-78
2021/04/01 03:04:41;;;;;;;16.88;5.93;;;10.10;81.60;;;;;;4991944;28;20057;-79
2021/04/01 03:07:07;;;;;;;21.85;5.47;;;10.10;81.90;;;;;;4986933;28;20042;-77
2021/04/01 03:09:34;;;;;;;11.63;4.65;;;10.00;81.60;;;;;;4992857;28;20527;-79
2021/04/01 03:12:00;;;;;;;13.63;5.72;;;10.10;82.40;;;;;;5000218;28;20524;-79
2021/04/01 03:14:26;;;;;;;19.92;5.80;;;10.00;82.10;;;;;;4992589;28;20566;-79
2021/04/01 03:16:52;;;;;;;17.48;4.93;;;10.00;82.60;;;;;;4990170;28;20122;-78
2021/04/01 03:19:17;;;;;;;18.00;4.72;;;10.00;82.90;;;;;;5003524;28;20054;-78
2021/04/01 03:21:43;;;;;;;10.85;5.22;;;9.90;83.60;;;;;;4995168;28;21028;-78
2021/04/01 03:24:10;;;;;;;15.30;4.85;;;9.90;83.80;;;;;;4997000;28;20041;-78
2021/04/01 03:26:36;;;;;;;15.13;5.60;;;9.90;84.20;;;;;;4994854;28;20046;-78
2021/04/01 03:29:02;;;;;;;14.63;4.68;;;9.90;84.60;;;;;;4993513;28;20552;-78
2021/04/01 03:31:28;;;;;;;13.32;5.20;;;9.90;84.70;;;;;;4995338;28;20045;-78
2021/04/01 03:33:53;;;;;;;13.25;5.25;;;9.80;85.00;;;;;;4998136;28;20046;-81
2021/04/01 03:36:19;;;;;;;15.85;5.43;;;9.90;85.30;;;;;;4997469;28;20038;-78
2021/04/01 03:38:46;;;;;;;13.82;5.07;;;9.80;85.40;;;;;;4996918;28;20038;-79
2021/04/01 03:41:12;;;;;;;19.60;5.50;;;9.80;85.50;;;;;;4996434;28;20116;-78
2021/04/01 03:43:38;;;;;;;15.73;5.32;;;9.80;85.50;;;;;;4996642;28;20448;-78
2021/04/01 03:46:03;;;;;;;18.45;4.97;;;9.80;85.80;;;;;;4990835;28;20452;-78
2021/04/01 03:48:29;;;;;;;14.68;5.13;;;9.80;86.40;;;;;;5006643;28;20054;-77
2021/04/01 03:50:55;;;;;;;19.00;6.15;;;9.80;86.80;;;;;;4991937;28;20038;-78
2021/04/01 03:53:20;;;;;;;17.20;5.28;;;9.80;87.50;;;;;;4988951;28;20037;-78
2021/04/01 03:55:47;;;;;;;12.73;5.13;;;9.80;87.30;;;;;;4993748;28;20046;-78
2021/04/01 04:03:46;;;;;;;13.15;5.25;;;9.70;88.30;;;;;;4990843;28;20109;-78
2021/04/01 04:09:03;;;;;;;15.30;4.88;;;9.60;88.20;;;;;;4993401;28;20458;-77
2021/04/01 04:11:34;;;;;;;15.02;5.57;;;9.60;88.40;;;;;;4991544;28;20509;-77
2021/04/01 04:16:31;;;;;;;14.85;5.25;;;9.60;89.80;;;;;;4992578;28;20823;-79
2021/04/01 04:18:56;;;;;;;16.02;5.47;;;9.70;90.00;;;;;;4994093;28;20027;-78
2021/04/01 04:21:22;;;;;;;19.45;5.30;;;9.70;90.20;;;;;;4992660;28;20030;-78
2021/04/01 04:23:48;;;;;;;21.38;5.35;;;9.60;89.80;;;;;;4998129;28;20034;-78
2021/04/01 04:26:15;;;;;;;16.95;5.25;;;9.70;90.10;;;;;;4995819;28;20402;-78
2021/04/01 04:28:41;;;;;;;15.35;4.75;;;9.70;89.90;;;;;;4993732;28;20034;-78
2021/04/01 04:31:07;;;;;;;16.45;5.30;;;9.60;90.00;;;;;;4994870;28;20034;-78
2021/04/01 04:33:33;;;;;;;20.45;5.85;;;9.60;90.00;;;;;;4995826;28;20556;-77
2021/04/01 04:35:59;;;;;;;16.15;5.93;;;9.50;90.10;;;;;;4993071;28;20050;-77
2021/04/01 04:38:26;;;;;;;12.68;5.00;;;9.50;90.30;;;;;;4996208;28;20065;-78
2021/04/01 04:40:56;;;;;;;14.18;5.15;;;9.60;90.60;;;;;;4996853;28;20052;-77
2021/04/01 04:43:26;;;;;;;17.23;5.88;;;9.50;90.20;;;;;;4999567;28;20742;-78
2021/04/01 04:45:52;;;;;;;13.32;5.68;;;9.50;90.50;;;;;;4998029;28;20088;-78
2021/04/01 04:48:19;;;;;;;28.65;6.10;;;9.50;90.40;;;;;;4998952;28;20030;-78
2021/04/01 04:50:45;;;;;;;19.30;5.43;;;9.50;90.50;;;;;;4999254;28;20038;-78
2021/04/01 04:53:11;;;;;;;16.25;5.72;;;9.50;90.40;;;;;;4996445;28;20415;-78
2021/04/01 04:55:37;;;;;;;11.02;5.53;;;9.50;90.70;;;;;;4994028;28;20054;-78
2021/04/01 05:05:47;;;;;;;9.40;4.95;;;9.40;90.80;;;;;;4994815;28;20516;-78
2021/04/01 05:08:12;;;;;;;19.08;5.93;;;9.40;90.90;;;;;;4995232;28;20038;-78
2021/04/01 05:10:38;;;;;;;19.35;5.38;;;9.50;91.00;;;;;;4993504;28;20042;-78
2021/04/01 05:15:32;;;;;;;17.80;5.32;;;9.60;91.20;;;;;;4992531;28;20124;-78
2021/04/01 05:18:13;;;;;;;12.93;5.53;;;9.60;91.00;;;;;;4993851;28;20125;-77
2021/04/01 05:20:39;;;;;;;19.08;5.85;;;9.70;90.90;;;;;;4991694;28;20042;-77
2021/04/01 05:23:11;;;;;;;18.38;5.47;;;9.70;90.80;;;;;;4991374;28;20044;-80
2021/04/01 05:25:37;;;;;;;16.95;5.57;;;9.70;90.70;;;;;;4993023;28;20038;-78
2021/04/01 05:28:20;;;;;;;19.83;7.25;;;9.70;90.80;;;;;;4990931;28;20040;-78
2021/04/01 05:30:46;;;;;;;21.98;6.78;;;9.80;90.50;;;;;;4994726;28;20041;-78
2021/04/01 05:33:14;;;;;;;16.63;5.72;;;9.80;90.60;;;;;;4991456;28;20613;-78
2021/04/01 05:35:40;;;;;;;24.63;6.03;;;9.80;90.90;;;;;;4996242;28;20045;-78
2021/04/01 05:38:05;;;;;;;14.88;5.78;;;9.90;90.80;;;;;;4999259;28;20117;-78
2021/04/01 05:40:32;;;;;;;13.35;5.88;;;9.90;90.80;;;;;;5001952;28;20532;-79
2021/04/01 05:42:57;;;;;;;24.08;6.07;;;10.00;90.40;;;;;;4998430;28;20053;-78
2021/04/01 05:47:56;;;;;;;24.42;6.28;;;10.10;90.00;;;;;;4996355;28;20747;-78
2021/04/01 06:01:31;;;;;;;18.35;6.15;;;10.70;87.60;;;;;;4994136;28;20519;-79
2021/04/01 06:04:21;;;;;;;22.00;5.40;;;10.80;85.30;;;;;;4996903;28;20068;-78
2021/04/01 06:06:54;;;;;;;26.67;6.22;;;10.90;84.60;;;;;;5000816;28;20049;-78
2021/04/01 06:09:26;;;;;;;20.42;6.60;;;11.00;83.60;;;;;;4996460;28;20574;-79
2021/04/01 06:11:54;;;;;;;26.27;6.18;;;11.10;84.00;;;;;;4996242;28;20567;-79
2021/04/01 06:14:34;;;;;;;32.72;7.18;;;11.20;83.90;;;;;;4995483;28;20320;-78
2021/04/01 06:17:10;;;;;;;34.85;6.70;;;11.30;83.90;;;;;;4996029;28;20038;-79
2021/04/01 06:19:37;;;;;;;25.98;7.05;;;11.50;83.60;;;;;;4996134;28;20050;-79
2021/04/01 06:22:05;;;;;;;21.02;6.68;;;11.50;82.70;;;;;;5005516;28;20033;-79
2021/04/01 06:24:33;;;;;;;22.88;6.93;;;11.60;82.50;;;;;;5001020;28;20623;-76
2021/04/01 06:29:36;;;;;;;25.67;7.00;;;11.90;82.00;;;;;;4993532;28;20034;-77
2021/04/01 06:32:03;;;;;;;20.95;7.18;;;12.00;78.50;;;;;;4997941;28;20038;-76
2021/04/01 06:34:41;;;;;;;25.40;7.40;;;12.10;77.50;;;;;;4993535;28;20038;-77
2021/04/01 06:37:26;;;;;;;28.02;7.40;;;12.30;75.80;;;;;;4991422;28;20034;-78
2021/04/01 06:40:03;;;;;;;18.33;7.55;;;12.50;74.40;;;;;;4991702;28;20092;-78
2021/04/01 06:42:33;;;;;;;39.38;8.35;;;12.70;73.30;;;;;;4992046;28;20088;-78
2021/04/01 06:45:04;;;;;;;30.52;8.25;;;12.80;70.50;;;;;;4990643;28;20043;-78
2021/04/01 06:47:33;;;;;;;19.77;7.05;;;13.00;70.10;;;;;;4989139;28;20065;-78
2021/04/01 06:52:36;;;;;;;36.50;6.57;;;13.30;69.10;;;;;;4993575;28;20053;-80
2021/04/01 06:55:17;;;;;;;27.15;7.20;;;13.40;68.30;;;;;;4991918;28;20197;-79
2021/04/01 06:58:05;;;;;;;31.77;7.55;;;13.70;67.10;;;;;;4992169;28;20089;-79
2021/04/01 07:03:11;;;;;;;24.92;7.43;;;14.10;63.40;;;;;;4994133;28;20065;-80
2021/04/01 07:06:02;;;;;;;25.17;7.50;;;14.40;62.00;;;;;;4989968;28;20042;-80
2021/04/01 07:11:24;;;;;;;36.38;7.78;;;15.30;57.70;;;;;;4990270;28;20776;-79
2021/04/01 07:13:54;;;;;;;26.33;8.00;;;15.50;57.30;;;;;;4989796;28;20054;-78
2021/04/01 07:36:03;;;;;;;46.42;9.82;;;18.20;39.70;;;;;;4989809;28;20119;-79
2021/04/01 07:46:58;;;;;;;42.60;8.43;;;17.50;42.20;;;;;;4995785;28;20052;-79
2021/04/01 07:49:27;;;;;;;25.67;7.60;;;17.50;41.90;;;;;;4999839;28;20052;-79
2021/04/01 07:51:59;;;;;;;36.67;8.35;;;17.60;41.20;;;;;;4998654;28;20037;-79
2021/04/01 07:54:40;;;;;;;30.33;8.05;;;18.00;40.70;;;;;;4997749;28;20101;-78
2021/04/01 08:05:32;;;;;;;21.63;7.28;;;19.20;37.30;;;;;;5011449;28;20045;-78
2021/04/01 08:08:08;;;;;;;19.52;7.35;;;19.40;37.40;;;;;;4988810;28;20034;-78
2021/04/01 08:10:41;;;;;;;26.02;7.60;;;19.30;36.00;;;;;;4990823;28;20091;-77
2021/04/01 08:13:14;;;;;;;37.67;8.40;;;18.90;36.70;;;;;;4989345;28;20034;-77
2021/04/01 08:15:52;;;;;;;25.85;7.18;;;18.50;37.10;;;;;;4995537;28;20958;-81
2021/04/01 08:20:57;;;;;;;19.02;6.80;;;18.40;39.20;;;;;;4996923;28;20576;-87
2021/04/01 08:23:31;;;;;;;28.80;7.85;;;18.10;39.20;;;;;;4998748;28;20065;-83
2021/04/01 08:26:57;;;;;;;31.17;7.05;;;18.40;39.00;;;;;;5000527;28;20347;-81
2021/04/01 08:36:25;;;;;;;26.67;8.70;;;19.20;37.10;;;;;;4993410;28;20037;-76
2021/04/01 08:38:52;;;;;;;29.83;9.30;;;19.40;36.10;;;;;;4991941;28;20039;-80
2021/04/01 08:41:42;;;;;;;25.42;8.32;;;20.20;34.60;;;;;;4994463;28;20488;-80
2021/04/01 08:44:31;;;;;;;24.75;7.53;;;20.80;32.60;;;;;;4994202;28;20485;-81
2021/04/01 08:47:21;;;;;;;30.20;7.20;;;20.70;30.60;;;;;;4994535;28;20084;-83
2021/04/01 08:53:11;;;;;;;19.65;7.35;;;21.30;31.90;;;;;;4997431;28;20081;-81
2021/04/01 08:55:51;;;;;;;19.92;7.05;;;21.50;30.80;;;;;;4993629;28;20096;-79
2021/04/01 08:58:22;;;;;;;28.80;7.38;;;21.40;31.00;;;;;;4996409;28;20063;-80
2021/04/01 09:00:54;;;;;;;26.67;7.55;;;21.60;30.50;;;;;;4998859;28;20037;-81
2021/04/01 09:03:30;;;;;;;20.60;7.15;;;21.90;29.50;;;;;;4995758;28;20129;-80
2021/04/01 09:05:56;;;;;;;17.85;7.13;;;22.30;28.30;;;;;;4995027;28;20069;-80
2021/04/01 09:08:25;;;;;;;35.63;8.30;;;22.80;27.10;;;;;;4992301;28;20057;-81
2021/04/01 09:10:55;;;;;;;23.17;6.65;;;23.00;26.50;;;;;;4996273;28;20045;-81
2021/04/01 09:13:30;;;;;;;22.58;6.70;;;23.10;26.40;;;;;;4996102;28;20037;-86
2021/04/01 09:18:29;;;;;;;23.85;7.40;;;23.80;26.50;;;;;;4997650;28;20113;-81
2021/04/01 09:21:03;;;;;;;34.95;7.65;;;24.00;26.40;;;;;;4994227;28;20037;-81
2021/04/01 09:23:40;;;;;;;22.15;6.47;;;23.30;25.60;;;;;;4995110;28;20497;-81
2021/04/01 09:26:07;;;;;;;27.58;7.07;;;23.30;26.40;;;;;;4994671;28;20069;-81
2021/04/01 09:28:38;;;;;;;31.75;6.47;;;23.30;26.30;;;;;;4999946;28;20038;-81
2021/04/01 09:31:06;;;;;;;24.63;6.45;;;23.20;26.50;;;;;;4996282;28;20030;-81
2021/04/01 09:33:34;;;;;;;29.80;6.70;;;23.30;26.70;;;;;;5004564;28;20112;-81
2021/04/01 09:36:12;;;;;;;25.45;6.90;;;23.60;26.20;;;;;;5001229;28;20057;-81
2021/04/01 09:38:43;;;;;;;17.75;6.60;;;24.20;25.70;;;;;;4981683;28;20042;-80
2021/04/01 09:41:23;;;;;;;17.17;5.97;;;25.00;24.50;;;;;;5005499;28;20045;-81
2021/04/01 09:43:50;;;;;;;19.98;6.30;;;25.80;23.30;;;;;;4972062;28;20034;-82
2021/04/01 09:46:18;;;;;;;15.25;5.85;;;25.60;22.10;;;;;;5006169;28;20050;-81
2021/04/01 09:48:58;;;;;;;23.63;6.10;;;26.10;21.60;;;;;;4999104;28;21914;-82
2021/04/01 09:51:28;;;;;;;14.57;5.85;;;25.90;21.00;;;;;;5007573;28;20331;-81
2021/04/01 09:53:54;;;;;;;20.42;6.45;;;25.70;21.10;;;;;;5005935;28;20560;-80
2021/04/01 09:56:31;;;;;;;24.02;7.03;;;26.70;21.10;;;;;;4996656;28;20049;-81
2021/04/01 09:58:58;;;;;;;21.30;5.38;;;26.90;19.20;;;;;;4997107;28;20031;-82
2021/04/01 10:01:35;;;;;;;21.10;6.80;;;27.00;19.50;;;;;;4998601;28;20516;-81
2021/04/01 10:04:01;;;;;;;31.00;6.85;;;27.10;18.80;;;;;;5005263;28;20038;-83
2021/04/01 10:06:36;;;;;;;41.78;7.00;;;27.50;18.40;;;;;;4996250;28;20493;-82
2021/04/01 10:09:29;;;;;;;24.13;6.38;;;28.00;17.90;;;;;;4998739;28;20038;-82
2021/04/01 10:12:04;;;;;;;26.20;6.85;;;28.00;16.40;;;;;;4999573;28;20049;-82
2021/04/01 10:14:30;;;;;;;18.05;6.05;;;28.20;17.20;;;;;;4997457;28;20044;-82
2021/04/01 10:17:09;;;;;;;25.08;5.72;;;29.20;16.10;;;;;;4992058;28;20540;-80
2021/04/01 10:19:40;;;;;;;25.55;5.55;;;29.50;15.80;;;;;;4996573;28;20057;-82
2021/04/01 10:22:06;;;;;;;18.30;6.40;;;29.00;15.10;;;;;;4999373;28;20394;-82
2021/04/01 10:24:38;;;;;;;14.23;5.32;;;30.20;15.20;;;;;;4999262;28;20037;-86
2021/04/01 10:27:23;;;;;;;11.63;4.20;;;30.10;14.60;;;;;;4977853;28;20031;-87
2021/04/01 10:32:31;;;;;;;17.05;4.32;;;30.80;13.40;;;;;;4997652;28;20049;-86
2021/04/01 10:35:00;;;;;;;16.80;4.40;;;30.90;13.40;;;;;;5011336;28;20137;-86
2021/04/01 10:37:26;;;;;;;18.25;4.68;;;30.50;13.40;;;;;;4996540;28;20500;-87
2021/04/01 10:39:52;;;;;;;14.05;4.80;;;31.90;12.20;;;;;;5005454;28;20045;-82
2021/04/01 10:42:31;;;;;;;14.27;4.35;;;32.90;11.40;;;;;;5006765;28;20027;-88
2021/04/01 10:45:11;;;;;;;11.88;4.05;;;32.90;11.40;;;;;;5007231;28;20456;-87
2021/04/01 10:47:56;;;;;;;17.58;4.45;;;31.60;10.80;;;;;;5003111;28;20040;-87
2021/04/01 10:50:26;;;;;;;13.88;3.97;;;32.00;11.60;;;;;;4997348;28;20181;-87
2021/04/01 10:52:53;;;;;;;17.30;3.53;;;32.00;11.10;;;;;;4997342;28;20037;-87
2021/04/01 10:55:28;;;;;;;18.65;4.88;;;31.00;11.40;;;;;;4997573;28;20131;-86
2021/04/01 10:58:12;;;;;;;9.45;3.75;;;32.10;11.40;;;;;;5004051;28;20100;-86
2021/04/01 11:00:38;;;;;;;9.95;3.85;;;29.70;11.60;;;;;;4993717;28;20374;-87
2021/04/01 11:03:06;;;;;;;13.38;4.25;;;29.90;14.00;;;;;;5002067;28;20507;-87
2021/04/01 11:05:36;;;;;;;7.88;3.03;;;31.40;12.90;;;;;;4996264;28;20041;-87
2021/04/01 11:08:11;;;;;;;9.13;3.45;;;31.10;11.50;;;;;;5001758;28;20026;-86
2021/04/01 11:10:38;;;;;;;12.55;2.42;;;31.50;11.90;;;;;;5006830;28;20042;-82
2021/04/01 11:13:09;;;;;;;9.73;2.72;;;30.40;12.20;;;;;;5000333;28;20105;-81
2021/04/01 11:15:40;;;;;;;9.63;2.53;;;29.90;12.70;;;;;;5002628;28;20560;-83
2021/04/01 11:18:14;;;;;;;7.25;2.88;;;30.60;14.10;;;;;;4999516;28;20124;-81
2021/04/01 11:20:41;;;;;;;16.50;3.25;;;30.40;13.30;;;;;;4996676;28;20502;-82
2021/04/01 11:23:12;;;;;;;16.30;2.83;;;30.70;12.50;;;;;;4995494;28;20030;-81
2021/04/01 11:25:39;;;;;;;13.55;2.92;;;30.70;12.30;;;;;;4992423;28;20038;-82
2021/04/01 11:28:06;;;;;;;10.27;2.78;;;30.80;13.20;;;;;;4994792;28;20052;-82
2021/04/01 11:30:51;;;;;;;11.77;3.15;;;30.30;13.30;;;;;;4998528;28;20026;-83
2021/04/01 11:33:18;;;;;;;10.88;2.63;;;29.10;13.70;;;;;;5006492;28;20121;-83
2021/04/01 11:35:48;;;;;;;9.38;2.65;;;29.10;14.10;;;;;;4998320;28;20061;-83
2021/04/01 11:38:25;;;;;;;10.75;2.92;;;29.40;13.90;;;;;;5000341;28;20036;-82
2021/04/01 11:40:56;;;;;;;11.57;2.63;;;29.50;13.50;;;;;;4999254;28;20398;-83
2021/04/01 11:43:25;;;;;;;8.13;2.75;;;30.30;13.10;;;;;;4996804;28;20058;-83
2021/04/01 11:45:51;;;;;;;7.30;2.53;;;30.50;13.00;;;;;;4996521;28;20409;-82
2021/04/01 11:48:22;;;;;;;6.50;2.05;;;30.70;12.40;;;;;;5000059;28;20038;-83
2021/04/01 11:50:51;;;;;;;8.93;2.25;;;30.20;11.30;;;;;;5005643;28;20038;-83
2021/04/01 11:53:17;;;;;;;6.53;2.67;;;30.20;13.10;;;;;;5009160;28;20041;-82
2021/04/01 11:55:53;;;;;;;19.48;3.13;;;29.80;12.10;;;;;;4992469;28;20079;-84
2021/04/01 11:58:21;;;;;;;5.35;2.35;;;28.80;13.70;;;;;;5008014;28;20030;-83
2021/04/01 12:00:49;;;;;;;5.75;2.30;;;29.70;13.70;;;;;;5003199;28;20125;-83
2021/04/01 12:03:33;;;;;;;7.72;2.33;;;29.60;12.80;;;;;;5001923;28;20152;-82
2021/04/01 12:05:59;;;;;;;12.40;2.65;;;29.40;13.30;;;;;;4999857;28;20573;-81
2021/04/01 12:08:25;;;;;;;7.55;2.70;;;29.10;13.60;;;;;;4997260;28;20114;-83
2021/04/01 12:10:56;;;;;;;12.32;3.33;;;30.40;12.90;;;;;;4997210;28;20170;-84
2021/04/01 12:13:23;;;;;;;9.90;2.67;;;30.40;12.60;;;;;;4997714;28;20133;-83
2021/04/01 12:15:49;;;;;;;14.45;2.85;;;30.90;12.10;;;;;;4997010;28;20078;-83
2021/04/01 12:18:14;;;;;;;13.95;2.45;;;31.00;11.60;;;;;;4997482;28;20034;-82
2021/04/01 12:20:41;;;;;;;7.55;1.98;;;30.20;12.50;;;;;;4998780;28;20042;-82
2021/04/01 12:23:11;;;;;;;15.43;2.38;;;30.00;12.80;;;;;;4999547;28;20107;-83
2021/04/01 12:25:37;;;;;;;7.32;1.90;;;30.10;13.40;;;;;;5001281;28;20254;-83
2021/04/01 12:28:03;;;;;;;9.82;2.40;;;30.00;12.90;;;;;;4998719;28;20548;-83
2021/04/01 12:30:39;;;;;;;12.98;2.30;;;29.90;12.20;;;;;;5004280;28;20046;-84
2021/04/01 12:33:12;;;;;;;5.65;2.58;;;30.10;12.80;;;;;;4998324;28;20109;-82
2021/04/01 12:35:54;;;;;;;5.38;2.33;;;30.10;12.80;;;;;;4998583;28;20045;-81
2021/04/01 12:38:32;;;;;;;10.63;2.47;;;29.70;13.90;;;;;;5006624;28;20052;-80
2021/04/01 12:41:00;;;;;;;8.50;2.53;;;29.70;13.10;;;;;;5009653;28;20038;-81
2021/04/01 12:43:32;;;;;;;9.07;2.33;;;29.60;12.80;;;;;;5008172;28;20130;-80
2021/04/01 12:45:58;;;;;;;13.13;2.22;;;30.10;12.20;;;;;;5011863;28;20045;-80
2021/04/01 12:48:24;;;;;;;15.70;2.45;;;29.20;12.80;;;;;;5013839;28;20042;-80
2021/04/01 12:50:52;;;;;;;9.88;2.65;;;29.00;13.60;;;;;;5011848;28;20038;-80
2021/04/01 12:53:23;;;;;;;8.57;2.22;;;29.00;13.50;;;;;;5018960;28;20038;-81
2021/04/01 12:55:56;;;;;;;8.65;1.92;;;28.70;13.70;;;;;;5014192;28;20129;-80
2021/04/01 12:58:30;;;;;;;9.50;2.35;;;28.80;12.80;;;;;;5013129;28;20042;-81
2021/04/01 13:01:01;;;;;;;11.38;2.30;;;28.60;12.60;;;;;;5011691;28;20042;-81
2021/04/01 13:03:27;;;;;;;8.63;2.00;;;29.30;12.60;;;;;;5004441;28;20116;-81
2021/04/01 13:05:58;;;;;;;11.73;2.20;;;27.60;12.70;;;;;;4995175;28;20813;-81
2021/04/01 13:11:08;;;;;;;18.90;2.80;;;27.10;13.60;;;;;;4996922;28;20049;-79
2021/04/01 13:13:34;;;;;;;9.00;2.13;;;27.50;14.60;;;;;;5002250;28;20461;-80
2021/04/01 13:15:59;;;;;;;7.78;2.20;;;26.70;15.00;;;;;;4998133;28;20095;-78
2021/04/01 13:18:25;;;;;;;7.82;3.13;;;26.70;15.00;;;;;;4998899;28;20496;-80
2021/04/01 13:20:51;;;;;;;8.50;2.67;;;26.50;14.80;;;;;;4999296;28;20034;-82
2021/04/01 13:26:01;;;;;;;6.20;1.98;;;26.60;15.60;;;;;;4999926;28;20107;-79
2021/04/01 13:28:27;;;;;;;11.93;2.88;;;26.50;16.30;;;;;;5000037;28;20073;-80
2021/04/01 13:30:58;;;;;;;9.00;3.25;;;26.60;16.90;;;;;;5000821;28;20038;-80
2021/04/01 13:33:39;;;;;;;11.75;2.65;;;25.20;18.30;;;;;;4979499;28;573276;-80
2021/04/01 13:36:15;;;;;;;5.45;2.65;;;25.10;19.30;;;;;;4999665;28;20030;-79
2021/04/01 13:38:42;;;;;;;10.18;2.92;;;25.00;19.00;;;;;;5003005;28;20539;-80
2021/04/01 13:41:10;;;;;;;8.30;2.70;;;24.90;19.10;;;;;;5000357;28;20038;-78
2021/04/01 13:43:36;;;;;;;11.27;2.70;;;25.50;18.00;;;;;;5002065;28;20045;-80
2021/04/01 13:46:02;;;;;;;9.38;2.65;;;25.80;17.80;;;;;;5002887;28;20050;-79
2021/04/01 13:48:31;;;;;;;9.80;2.50;;;25.80;16.20;;;;;;5011248;28;20040;-79
2021/04/01 13:51:16;;;;;;;12.40;3.03;;;25.50;17.70;;;;;;5003304;28;20515;-80
2021/04/01 13:56:18;;;;;;;23.42;3.15;;;25.40;18.50;;;;;;5005189;28;20044;-82
2021/04/01 13:59:14;;;;;;;6.50;2.20;;;25.70;18.70;;;;;;5002586;28;20030;-82
2021/04/01 14:09:36;;;;;;;12.25;2.55;;;24.80;18.00;;;;;;5005980;28;20053;-82
2021/04/01 14:12:08;;;;;;;12.77;3.03;;;24.80;19.30;;;;;;5010660;28;20060;-83
2021/04/01 14:14:35;;;;;;;8.13;2.70;;;24.80;19.20;;;;;;5006005;28;20040;-82
2021/04/01 14:17:02;;;;;;;10.95;2.85;;;24.80;19.10;;;;;;5022061;28;20042;-82
2021/04/01 14:19:28;;;;;;;24.65;3.90;;;24.60;19.10;;;;;;5003554;28;20101;-81
2021/04/01 14:21:57;;;;;;;9.73;3.35;;;24.10;19.50;;;;;;5002884;28;20053;-81
2021/04/01 14:27:31;;;;;;;13.45;3.67;;;24.50;20.00;;;;;;5014573;28;20068;-80
2021/04/01 14:29:57;;;;;;;13.38;4.13;;;24.40;19.40;;;;;;4998720;28;20038;-80
2021/04/01 14:32:27;;;;;;;8.93;3.97;;;24.60;19.90;;;;;;4997240;28;20053;-80
2021/04/01 14:34:56;;;;;;;10.68;4.47;;;24.40;19.60;;;;;;4999008;28;20041;-79
2021/04/01 14:37:26;;;;;;;14.57;4.13;;;24.20;19.50;;;;;;4997643;28;20046;-79
2021/04/01 14:39:54;;;;;;;14.57;4.60;;;24.30;19.20;;;;;;5010878;28;20096;-82
2021/04/01 14:42:27;;;;;;;9.98;3.47;;;24.30;19.40;;;;;;4998843;28;20034;-83
2021/04/01 14:44:54;;;;;;;11.27;3.63;;;24.00;19.30;;;;;;4994866;28;20035;-79
2021/04/01 14:47:20;;;;;;;11.38;3.47;;;24.00;19.00;;;;;;4993599;28;20044;-79
2021/04/01 14:49:46;;;;;;;11.98;3.75;;;23.80;18.50;;;;;;5005258;28;20121;-79
2021/04/01 14:52:12;;;;;;;13.15;3.80;;;23.80;18.10;;;;;;4993466;28;20109;-79
2021/04/01 14:54:39;;;;;;;9.15;3.72;;;23.90;18.80;;;;;;4991757;28;20492;-79